Time;durP1;ratioP1;P1;durP2;ratioP2;P2;SDS_P1;SDS_P2;PMS_P1;PMS_P2;Temp;Humidity;BMP_temperature;BMP_pressure;BME280_temperature;BME280_humidity;BME280_pressure;Samples;Min_cycle;Max_cycle;Signal;HPM_P1;HPM_P2
2022/04/26 03:40:43;;;;;;;11.90;10.58;;;;;;;8.76;76.10;100149.97;3599921;77;20952;-76
2022/04/26 03:45:34;;;;;;;10.80;9.68;;;;;;;8.82;76.13;100161.25;3582959;77;21440;-76
2022/04/26 03:50:24;;;;;;;11.88;9.90;;;;;;;8.81;76.18;100160.82;3610111;77;22246;-77
2022/04/26 03:55:16;;;;;;;12.78;11.45;;;;;;;8.80;76.12;100172.92;3605624;77;21000;-76
2022/04/26 04:00:09;;;;;;;13.00;11.70;;;;;;;8.80;76.14;100174.62;3609188;77;21031;-76
2022/04/26 04:05:00;;;;;;;14.28;12.78;;;;;;;8.84;76.14;100176.44;3606858;77;20932;-76
2022/04/26 04:09:52;;;;;;;14.18;12.80;;;;;;;8.87;76.14;100180.34;3634774;77;21067;-76
2022/04/26 04:14:43;;;;;;;13.80;12.28;;;;;;;8.90;76.17;100185.58;3601475;77;21680;-76
2022/04/26 04:19:34;;;;;;;13.50;12.13;;;;;;;8.87;76.14;100179.05;3576811;77;20919;-76
2022/04/26 04:24:25;;;;;;;14.23;12.82;;;;;;;8.91;76.34;100188.64;3604182;77;21089;-76
2022/04/26 04:29:16;;;;;;;12.93;11.63;;;;;;;8.97;76.22;100194.77;3587604;77;20892;-76
2022/04/26 04:34:07;;;;;;;13.50;12.10;;;;;;;8.95;76.08;100208.57;3613880;77;20979;-76
2022/04/26 04:38:59;;;;;;;11.93;10.68;;;;;;;8.93;76.08;100205.09;3588222;77;20897;-76
2022/04/26 04:43:50;;;;;;;14.87;13.35;;;;;;;8.93;76.17;100207.68;3553546;77;20928;-76
2022/04/26 04:48:41;;;;;;;13.32;11.95;;;;;;;8.92;76.20;100224.07;3619439;77;21059;-76
2022/04/26 04:53:32;;;;;;;12.78;10.50;;;;;;;8.90;76.05;100223.17;3602923;77;20956;-76
2022/04/26 04:58:25;;;;;;;15.80;11.53;;;;;;;8.90;76.23;100225.77;3532638;77;21673;-76
2022/04/26 05:03:16;;;;;;;12.55;11.28;;;;;;;8.97;76.21;100234.09;3594856;78;21488;-76
2022/04/26 05:08:10;;;;;;;12.43;11.12;;;;;;;8.95;76.17;100228.02;3616860;77;20896;-76
2022/04/26 05:13:02;;;;;;;14.50;12.78;;;;;;;8.96;76.18;100236.26;3541107;77;20979;-76
2022/04/26 05:17:53;;;;;;;16.48;13.05;;;;;;;8.91;76.02;100230.13;3516421;77;20932;-76
2022/04/26 05:27:54;;;;;;;15.95;14.30;;;;;;;8.97;76.24;100253.54;3612381;78;20964;-76
2022/04/26 05:32:45;;;;;;;13.50;12.18;;;;;;;9.04;76.20;100269.64;3584575;77;22145;-76
2022/04/26 05:37:36;;;;;;;13.28;11.97;;;;;;;9.05;76.07;100266.22;3588315;77;20959;-76
2022/04/26 05:42:27;;;;;;;12.20;10.72;;;;;;;8.97;75.96;100265.20;3622892;77;20935;-76
2022/04/26 05:47:18;;;;;;;10.93;9.83;;;;;;;8.95;75.94;100270.80;3557824;77;21040;-76
2022/04/26 05:52:09;;;;;;;11.35;10.25;;;;;;;8.96;76.20;100275.15;3590449;77;20892;-76
2022/04/26 05:57:00;;;;;;;11.03;9.93;;;;;;;9.03;76.70;100280.89;3583088;77;20959;-76
2022/04/26 06:01:52;;;;;;;12.53;11.33;;;;;;;9.03;76.70;100280.89;3635689;77;20977;-76
2022/04/26 06:06:43;;;;;;;12.50;11.20;;;;;;;9.10;76.34;100287.02;3560382;77;21242;-76
2022/04/26 06:11:35;;;;;;;12.18;10.95;;;;;;;9.07;76.48;100296.94;3627367;77;21088;-76
2022/04/26 06:16:26;;;;;;;13.15;11.85;;;;;;;9.06;76.40;100299.06;3598581;77;20958;-76
2022/04/26 06:21:17;;;;;;;14.63;11.37;;;;;;;8.99;76.61;100288.14;3585265;78;20991;-76
2022/04/26 06:26:08;;;;;;;12.47;11.27;;;;;;;9.13;76.72;100305.23;3611520;77;21354;-76
2022/04/26 06:31:00;;;;;;;13.68;12.30;;;;;;;9.23;76.74;100306.23;3635825;77;20980;-76
2022/04/26 06:35:51;;;;;;;11.95;10.75;;;;;;;9.40;76.93;100311.27;3628022;77;21063;-77
2022/04/26 06:40:42;;;;;;;10.90;9.75;;;;;;;9.29;76.37;100320.62;3596545;77;22054;-77
2022/04/26 06:45:33;;;;;;;13.13;9.80;;;;;;;9.31;76.83;100324.97;3623386;77;20916;-77
2022/04/26 06:50:25;;;;;;;12.95;11.57;;;;;;;9.31;76.83;100324.97;3605176;77;20888;-77
2022/04/26 06:55:17;;;;;;;11.15;10.05;;;;;;;9.64;76.44;100331.55;3648434;77;20976;-78
2022/04/26 07:00:13;;;;;;;10.93;9.25;;;;;;;9.64;76.44;100331.55;3605033;77;21176;-81
2022/04/26 07:05:06;;;;;;;10.82;9.73;;;;;;;9.84;76.19;100333.12;3604241;77;20925;-76
2022/04/26 07:09:58;;;;;;;9.98;8.98;;;;;;;10.01;75.95;100344.16;3584248;77;21537;-78
2022/04/26 07:14:49;;;;;;;10.15;8.38;;;;;;;10.01;75.95;100344.16;3605505;77;20969;-82
2022/04/26 07:19:39;;;;;;;9.80;8.90;;;;;;;9.94;75.76;100348.39;3594998;77;20937;-79
2022/04/26 07:24:32;;;;;;;9.28;8.30;;;;;;;9.81;76.05;100355.14;3548392;77;20984;-77
2022/04/26 07:29:23;;;;;;;9.40;8.40;;;;;;;9.78;76.06;100360.27;3569552;77;21454;-76
2022/04/26 07:34:24;;;;;;;8.70;7.70;;;;;;;9.79;76.27;100362.03;3629920;77;21706;-81
2022/04/26 07:39:17;;;;;;;10.58;8.78;;;;;;;9.84;76.36;100385.05;3638816;77;22136;-82
2022/04/26 07:44:08;;;;;;;10.38;9.38;;;;;;;9.84;76.36;100385.05;3591230;77;21493;-79
2022/04/26 07:48:59;;;;;;;11.30;10.20;;;;;;;10.05;75.91;100378.00;3566194;77;21643;-78
2022/04/26 07:53:50;;;;;;;10.82;9.83;;;;;;;10.35;75.91;100384.89;3579780;77;21456;-77
2022/04/26 07:58:41;;;;;;;11.15;9.83;;;;;;;10.55;75.93;100391.62;3646638;77;20949;-77
2022/04/26 08:03:33;;;;;;;11.15;10.13;;;;;;;10.53;75.46;100398.11;3562729;77;21074;-79
2022/04/26 08:08:25;;;;;;;12.40;11.20;;;;;;;10.47;75.13;100396.74;3625599;77;21236;-78
2022/04/26 08:13:16;;;;;;;12.58;11.38;;;;;;;10.55;75.32;100405.92;3560105;77;21183;-79
2022/04/26 08:18:09;;;;;;;12.68;11.45;;;;;;;10.72;75.03;100409.61;3540118;77;20965;-79
2022/04/26 08:23:02;;;;;;;11.80;10.58;;;;;;;11.01;74.77;100415.11;3522375;77;21489;-79
2022/04/26 08:27:53;;;;;;;12.37;11.28;;;;;;;11.16;74.63;100417.42;3628451;77;20985;-81
2022/04/26 08:32:48;;;;;;;12.35;11.15;;;;;;;11.44;74.22;100425.06;3578545;77;21457;-80
2022/04/26 08:37:39;;;;;;;13.00;11.90;;;;;;;11.56;73.43;100419.10;3598897;77;21753;-79
2022/04/26 08:42:37;;;;;;;14.63;13.43;;;;;;;11.49;73.69;100430.33;3593282;77;20991;-79
2022/04/26 08:52:50;;;;;;;13.45;12.28;;;;;;;11.40;73.60;100437.63;3614534;77;20953;-79
2022/04/26 08:57:41;;;;;;;12.47;11.28;;;;;;;11.55;73.44;100450.75;3607431;77;21045;-79
2022/04/26 09:02:33;;;;;;;11.60;10.55;;;;;;;11.77;72.94;100447.05;3623509;77;50631;-78
2022/04/26 09:07:33;;;;;;;12.23;11.10;;;;;;;12.06;72.41;100453.80;3619657;77;20925;-82
2022/04/26 09:12:24;;;;;;;12.63;11.43;;;;;;;11.94;72.22;100453.71;3579372;77;20936;-79
2022/04/26 09:17:18;;;;;;;12.37;11.28;;;;;;;11.74;73.02;100460.91;3662764;77;21415;-79
2022/04/26 09:22:18;;;;;;;11.28;10.23;;;;;;;11.60;73.22;100453.41;3586093;78;20945;-80
2022/04/26 09:27:16;;;;;;;10.93;9.93;;;;;;;11.74;72.96;100456.14;3619188;77;21305;-78
2022/04/26 09:32:08;;;;;;;11.78;9.95;;;;;;;11.73;72.78;100466.09;3556221;77;20950;-78
2022/04/26 09:37:04;;;;;;;10.93;9.25;;;;;;;11.75;72.64;100471.78;3598775;77;20964;-79
2022/04/26 09:42:00;;;;;;;10.50;9.53;;;;;;;11.61;72.16;100473.39;3609386;77;20928;-78
2022/04/26 09:46:55;;;;;;;9.98;9.18;;;;;;;11.46;72.74;100468.90;3576507;77;21657;-80
2022/04/26 09:51:51;;;;;;;10.72;9.83;;;;;;;11.41;72.93;100471.48;3596209;77;21364;-77
2022/04/26 09:56:45;;;;;;;10.78;9.88;;;;;;;11.26;73.40;100472.62;3583542;77;20866;-78
2022/04/26 10:01:45;;;;;;;13.28;11.10;;;;;;;11.35;73.35;100475.30;3546145;77;20987;-77
2022/04/26 10:06:39;;;;;;;13.15;11.73;;;;;;;11.58;73.01;100474.66;3604647;77;20948;-77
2022/04/26 10:11:31;;;;;;;12.80;11.60;;;;;;;11.85;72.51;100478.36;3581369;77;20933;-77
2022/04/26 10:16:24;;;;;;;16.30;14.63;;;;;;;11.86;71.88;100480.09;3603498;77;21930;-79
2022/04/26 10:21:27;;;;;;;14.73;13.15;;;;;;;11.56;71.51;100485.50;3614368;77;20945;-78
2022/04/26 10:26:23;;;;;;;17.15;15.35;;;;;;;11.52;72.15;100490.21;3629749;77;20933;-77
2022/04/26 10:31:14;;;;;;;17.23;15.28;;;;;;;11.38;72.40;100497.91;3538717;79;21555;-79
2022/04/26 10:36:36;;;;;;;18.43;15.90;;;;;;;11.30;71.97;100501.71;3583148;77;20974;-80
2022/04/26 10:41:37;;;;;;;16.85;15.18;;;;;;;11.29;72.35;100505.19;3629908;77;21648;-80
2022/04/26 10:46:28;;;;;;;14.13;12.73;;;;;;;11.63;72.36;100505.53;3597281;77;20949;-81
2022/04/26 10:51:35;;;;;;;15.90;14.40;;;;;;;12.24;71.18;100500.41;3593909;77;21596;-81
2022/04/26 10:56:27;;;;;;;14.13;12.93;;;;;;;13.08;70.38;100496.03;3628743;77;20961;-81
2022/04/26 11:01:18;;;;;;;13.55;12.35;;;;;;;13.59;69.13;100493.10;3599841;77;21920;-81
2022/04/26 11:06:09;;;;;;;12.70;11.48;;;;;;;13.64;68.77;100492.67;3546509;77;21909;-80
2022/04/26 11:11:11;;;;;;;12.70;11.03;;;;;;;13.47;68.00;100499.64;3596131;77;21270;-78
2022/04/26 11:16:12;;;;;;;13.05;11.75;;;;;;;13.28;68.00;100507.39;3628038;77;21426;-80
2022/04/26 11:21:04;;;;;;;14.15;12.50;;;;;;;13.09;68.20;100510.80;3609915;77;21026;-83
2022/04/26 11:31:16;;;;;;;17.40;12.78;;;;;;;13.70;67.67;100496.62;3592259;77;21555;-82
2022/04/26 11:36:08;;;;;;;10.88;9.88;;;;;;;13.58;67.31;100505.75;3607435;77;20947;-82
2022/04/26 11:41:05;;;;;;;11.70;10.55;;;;;;;13.43;67.49;100508.32;3632612;77;20935;-81
2022/04/26 11:45:57;;;;;;;;;;;;;;;13.51;66.47;100504.00;3587306;77;21464;-83
2022/04/26 11:50:51;;;;;;;10.23;9.30;;;;;;;13.80;65.51;100500.09;3611833;77;20130;-82
2022/04/26 11:55:46;;;;;;;8.28;7.40;;;;;;;14.03;65.33;100502.70;3630570;77;21234;-81
2022/04/26 12:01:15;;;;;;;7.55;6.75;;;;;;;14.28;65.36;100504.84;3546219;77;20968;-84
2022/04/26 12:06:09;;;;;;;4.83;4.33;;;;;;;14.43;64.76;100504.39;3590072;78;20976;-81
2022/04/26 12:11:26;;;;;;;5.47;4.97;;;;;;;14.48;63.08;100499.57;3553143;77;20941;-81
2022/04/26 12:16:20;;;;;;;5.12;4.40;;;;;;;14.26;63.46;100497.45;3628497;77;21456;-81
2022/04/26 12:21:11;;;;;;;5.53;3.90;;;;;;;13.83;63.15;100505.77;3554958;79;23314;-81
2022/04/26 12:26:05;;;;;;;6.65;4.92;;;;;;;13.79;62.65;100500.09;3594169;78;20964;-79
2022/04/26 12:30:58;;;;;;;5.40;4.20;;;;;;;14.04;62.96;100496.62;3566750;79;22324;-80
2022/04/26 12:36:02;;;;;;;4.90;4.40;;;;;;;14.33;61.87;100499.62;3584573;77;21502;-82
2022/04/26 12:41:05;;;;;;;6.33;4.30;;;;;;;14.45;60.81;100494.37;3623072;79;21481;-80
2022/04/26 12:46:02;;;;;;;5.65;4.05;;;;;;;14.61;61.03;100490.00;3550998;78;20942;-79
2022/04/26 12:50:56;;;;;;;4.80;4.30;;;;;;;14.52;60.61;100496.95;3605831;78;20995;-80
2022/04/26 12:55:47;;;;;;;5.50;4.62;;;;;;;14.50;61.09;100507.42;3596324;77;20976;-78
2022/04/26 13:00:46;;;;;;;5.33;4.87;;;;;;;14.64;61.28;100502.19;3551644;79;20995;-76
2022/04/26 13:05:45;;;;;;;6.00;4.90;;;;;;;14.66;60.55;100499.13;3626068;77;20989;-76
2022/04/26 13:10:36;;;;;;;5.15;4.62;;;;;;;14.49;60.93;100489.55;3574421;77;21405;-78
2022/04/26 13:15:27;;;;;;;6.45;5.78;;;;;;;14.41;59.78;100497.84;3578338;77;21413;-78
2022/04/26 13:20:18;;;;;;;5.17;3.85;;;;;;;14.49;59.88;100490.86;3609480;77;21032;-77
2022/04/26 13:25:10;;;;;;;4.77;4.17;;;;;;;14.60;59.14;100490.86;3487050;80;20992;-77
2022/04/26 13:30:03;;;;;;;4.37;3.98;;;;;;;14.50;59.05;100491.72;3521083;79;21193;-76
2022/04/26 13:34:54;;;;;;;7.05;4.15;;;;;;;14.56;59.47;100490.83;3449950;80;21384;-76
2022/04/26 13:39:46;;;;;;;4.83;3.60;;;;;;;14.58;58.93;100499.61;3470866;80;20973;-80
2022/04/26 13:44:37;;;;;;;5.58;3.65;;;;;;;14.49;58.74;100490.86;3421048;81;20999;-81
2022/04/26 13:49:29;;;;;;;4.25;3.72;;;;;;;14.48;59.00;100496.95;3471690;80;20972;-80
2022/04/26 13:54:21;;;;;;;3.87;3.47;;;;;;;14.38;58.66;100505.72;3413610;80;20986;-80
2022/04/26 13:59:13;;;;;;;4.58;3.92;;;;;;;14.30;59.39;100508.78;3502335;80;21042;-78
2022/04/26 14:04:04;;;;;;;9.40;4.37;;;;;;;14.14;58.92;100510.98;3499510;80;21544;-80
2022/04/26 14:08:55;;;;;;;5.03;3.80;;;;;;;14.08;58.49;100504.02;3492525;79;20971;-79
2022/04/26 14:23:54;;;;;;;5.67;4.78;;;;;;;13.91;59.54;100511.85;3538934;79;21113;-78
2022/04/26 14:28:46;;;;;;;4.95;3.85;;;;;;;13.85;59.01;100509.25;3472324;80;20999;-77
2022/04/26 14:33:38;;;;;;;4.50;4.10;;;;;;;13.79;59.25;100514.45;3508125;79;21331;-78
2022/04/26 14:38:29;;;;;;;5.03;3.77;;;;;;;13.82;59.64;100514.47;3552430;79;20898;-78
2022/04/26 14:43:20;;;;;;;5.40;4.45;;;;;;;13.80;59.73;100510.98;3461902;79;21521;-78
2022/04/26 14:48:16;;;;;;;4.60;4.20;;;;;;;13.77;59.34;100514.89;3488067;80;21372;-77
2022/04/26 14:53:07;;;;;;;4.87;4.30;;;;;;;13.76;59.43;100518.40;3471926;80;20953;-77
2022/04/26 14:57:58;;;;;;;4.72;4.10;;;;;;;13.75;59.21;100514.03;3536083;79;20983;-77
2022/04/26 15:02:49;;;;;;;5.50;3.92;;;;;;;13.78;59.50;100516.66;3461868;80;20976;-78
2022/04/26 15:17:58;;;;;;;5.83;3.92;;;;;;;13.72;59.00;100524.05;3553309;79;20968;-77
2022/04/26 15:22:49;;;;;;;4.60;3.95;;;;;;;13.64;58.76;100521.41;3523589;79;20875;-77
2022/04/26 15:27:41;;;;;;;4.87;3.52;;;;;;;13.57;59.36;100530.11;3543227;79;21445;-77
2022/04/26 15:32:32;;;;;;;3.83;3.42;;;;;;;13.52;59.17;100538.37;3551781;80;20923;-78
2022/04/26 15:37:25;;;;;;;4.67;4.28;;;;;;;13.45;59.58;100536.61;3637007;77;21101;-77
2022/04/26 15:42:18;;;;;;;4.58;4.08;;;;;;;13.37;59.67;100540.52;3604633;77;20954;-78
2022/04/26 15:47:09;;;;;;;4.25;3.33;;;;;;;13.31;59.85;100541.38;3592349;78;20941;-77
2022/04/26 15:52:00;;;;;;;7.83;4.58;;;;;;;13.21;59.63;100539.56;3573449;77;20976;-77
2022/04/26 15:56:51;;;;;;;4.10;3.70;;;;;;;13.14;60.41;100541.72;3601063;78;20963;-77
2022/04/26 16:01:42;;;;;;;6.05;3.62;;;;;;;13.12;60.78;100535.63;3569094;77;21500;-79
2022/04/26 16:06:34;;;;;;;4.25;3.67;;;;;;;13.06;60.66;100540.84;3605733;77;20912;-78
2022/04/26 16:21:45;;;;;;;5.42;3.65;;;;;;;12.72;61.90;100545.45;3623906;77;21446;-77
2022/04/26 16:26:36;;;;;;;6.67;5.10;;;;;;;12.60;62.09;100540.16;3550918;77;21098;-78
2022/04/26 16:31:28;;;;;;;6.58;4.10;;;;;;;12.47;61.94;100543.57;3608516;77;21577;-77
2022/04/26 16:36:21;;;;;;;5.25;3.47;;;;;;;12.40;62.43;100547.42;3590208;77;20895;-77
2022/04/26 16:41:12;;;;;;;7.35;4.30;;;;;;;12.40;62.71;100542.65;3612528;77;21106;-77
2022/04/26 16:46:03;;;;;;;5.78;5.17;;;;;;;12.37;63.04;100544.78;3577930;77;20975;-77
2022/04/26 16:50:54;;;;;;;5.33;4.57;;;;;;;12.36;63.29;100548.72;3631405;77;20891;-77
2022/04/26 16:55:46;;;;;;;8.38;5.28;;;;;;;12.27;63.73;100548.63;3558330;77;21224;-77
2022/04/26 17:00:39;;;;;;;12.50;6.92;;;;;;;12.16;63.87;100552.45;3591251;77;21005;-77
2022/04/26 17:05:30;;;;;;;9.78;6.20;;;;;;;12.03;64.20;100558.00;3566249;77;21066;-77
2022/04/26 17:10:22;;;;;;;6.95;5.92;;;;;;;11.90;64.49;100561.34;3535790;77;21442;-77
2022/04/26 17:15:15;;;;;;;8.13;5.55;;;;;;;11.79;64.53;100567.31;3567352;77;20957;-77
2022/04/26 17:20:09;;;;;;;7.47;5.50;;;;;;;11.70;64.80;100575.05;3589167;77;21103;-77
2022/04/26 17:25:15;;;;;;;10.08;6.45;;;;;;;11.59;64.98;100577.97;3592070;77;21487;-77
2022/04/26 17:30:08;;;;;;;7.35;6.25;;;;;;;11.45;65.18;100572.61;3635804;77;20936;-77
2022/04/26 17:34:59;;;;;;;8.08;5.65;;;;;;;11.30;65.77;100581.09;3559968;77;21438;-77
2022/04/26 17:39:51;;;;;;;8.05;6.40;;;;;;;11.21;66.36;100584.89;3576519;77;21669;-77
2022/04/26 17:44:43;;;;;;;9.78;6.20;;;;;;;11.11;66.15;100594.33;3609651;77;20922;-77
2022/04/26 17:49:35;;;;;;;9.88;5.83;;;;;;;11.00;66.25;100599.39;3566186;77;20987;-76
2022/04/26 17:59:36;;;;;;;9.23;6.37;;;;;;;10.80;66.89;100603.43;3569373;77;21305;-76
2022/04/26 18:04:28;;;;;;;8.70;5.75;;;;;;;10.63;67.11;100619.66;3594861;77;21485;-77
2022/04/26 18:09:20;;;;;;;10.93;6.92;;;;;;;10.53;67.60;100629.47;3512975;77;20939;-76
2022/04/26 18:14:13;;;;;;;11.20;7.60;;;;;;;10.49;67.85;100630.27;3550282;77;21835;-77
2022/04/26 18:19:04;;;;;;;11.75;8.78;;;;;;;10.46;68.06;100632.81;3553032;77;21030;-76
2022/04/26 18:23:56;;;;;;;12.73;10.93;;;;;;;10.41;68.19;100647.45;3565014;77;20968;-76
2022/04/26 18:28:52;;;;;;;14.13;9.28;;;;;;;10.39;68.24;100660.86;3550332;77;21056;-76
2022/04/26 18:33:44;;;;;;;15.00;11.78;;;;;;;10.36;68.45;100660.83;3584337;77;20935;-76
2022/04/26 18:38:39;;;;;;;11.93;10.63;;;;;;;10.17;68.86;100659.16;3554534;77;21646;-75
2022/04/26 18:43:32;;;;;;;14.13;9.30;;;;;;;10.17;68.86;100659.16;3603504;77;21018;-75
2022/04/26 18:48:23;;;;;;;13.58;10.58;;;;;;;10.20;69.07;100673.52;3566019;77;20966;-76
2022/04/26 18:53:14;;;;;;;11.70;10.20;;;;;;;10.18;69.13;100676.52;3620501;77;21103;-76
2022/04/26 18:58:05;;;;;;;15.35;11.78;;;;;;;10.13;69.24;100683.34;3555866;78;21030;-75
2022/04/26 19:02:57;;;;;;;15.18;12.00;;;;;;;10.09;69.46;100685.02;3539779;77;21010;-75
2022/04/26 19:07:48;;;;;;;13.00;9.63;;;;;;;10.07;69.75;100694.94;3536438;77;21399;-76
2022/04/26 19:12:42;;;;;;;12.73;11.43;;;;;;;10.03;69.84;100696.60;3569342;77;20979;-73
2022/04/26 19:17:33;;;;;;;13.48;12.07;;;;;;;10.00;70.01;100695.66;3611716;77;21159;-76
2022/04/26 19:22:25;;;;;;;13.60;11.73;;;;;;;9.94;70.12;100700.30;3537151;77;20961;-76
2022/04/26 19:27:16;;;;;;;15.23;12.23;;;;;;;9.88;70.28;100708.84;3633385;77;21272;-77
2022/04/26 19:32:08;;;;;;;16.80;13.00;;;;;;;9.79;70.43;100713.00;3575999;77;20972;-78
2022/04/26 19:36:59;;;;;;;19.05;12.85;;;;;;;9.73;70.76;100712.45;3560582;78;20978;-79
2022/04/26 19:41:50;;;;;;;13.15;11.68;;;;;;;9.73;70.96;100722.84;3605290;77;21014;-78
2022/04/26 19:46:41;;;;;;;14.40;11.95;;;;;;;9.70;70.87;100721.47;3548423;77;20972;-78
2022/04/26 19:51:34;;;;;;;12.10;10.90;;;;;;;9.70;71.13;100717.58;3544625;77;22359;-78
2022/04/26 19:56:27;;;;;;;14.65;13.13;;;;;;;9.69;71.15;100724.90;3542177;77;21449;-78
2022/04/26 20:01:22;;;;;;;16.12;11.65;;;;;;;9.60;71.27;100720.82;3616273;77;20935;-78
2022/04/26 20:06:13;;;;;;;18.67;14.00;;;;;;;9.49;71.50;100726.65;3588404;77;21062;-78
2022/04/26 20:11:06;;;;;;;18.35;14.80;;;;;;;9.42;71.83;100732.55;3595249;77;21047;-78
2022/04/26 20:15:59;;;;;;;18.87;15.53;;;;;;;9.42;71.83;100732.55;3566437;77;20993;-78
2022/04/26 20:20:51;;;;;;;18.98;15.95;;;;;;;9.43;71.83;100722.64;3546151;77;21506;-77
2022/04/26 20:30:52;;;;;;;19.35;17.25;;;;;;;9.38;71.88;100733.33;3555692;77;21079;-77
2022/04/26 20:35:43;;;;;;;18.87;15.17;;;;;;;9.33;72.18;100740.14;3596911;78;21670;-77
2022/04/26 20:40:35;;;;;;;21.57;18.23;;;;;;;9.33;72.18;100740.14;3540422;77;21585;-77
2022/04/26 20:45:28;;;;;;;26.62;19.67;;;;;;;9.29;72.28;100738.33;3560974;77;21573;-77
2022/04/26 20:50:19;;;;;;;23.67;19.27;;;;;;;9.25;72.35;100733.92;3596877;77;20998;-77
2022/04/26 20:55:11;;;;;;;27.62;20.43;;;;;;;9.22;72.50;100740.33;3602786;77;21099;-77
2022/04/26 21:00:05;;;;;;;32.55;22.13;;;;;;;9.20;72.61;100743.31;3524895;77;20947;-77
2022/04/26 21:04:56;;;;;;;31.93;21.82;;;;;;;9.15;72.65;100740.16;3598328;77;20927;-77
2022/04/26 21:09:47;;;;;;;33.58;24.75;;;;;;;9.11;72.93;100747.43;3555805;77;21226;-77
2022/04/26 21:14:39;;;;;;;28.62;20.02;;;;;;;9.11;72.93;100747.43;3543405;78;21071;-77
2022/04/26 21:19:30;;;;;;;27.02;22.05;;;;;;;9.02;73.05;100762.78;3594896;77;21252;-77
2022/04/26 21:24:22;;;;;;;31.95;23.52;;;;;;;9.02;73.05;100762.78;3578470;78;21504;-77
2022/04/26 21:29:13;;;;;;;34.05;22.50;;;;;;;9.00;73.13;100761.88;3545238;77;20967;-77
2022/04/26 21:34:04;;;;;;;30.80;23.45;;;;;;;8.97;73.23;100763.09;3569114;77;21666;-77
2022/04/26 21:38:55;;;;;;;30.88;22.85;;;;;;;8.93;73.36;100762.13;3576965;78;20951;-77
2022/04/26 21:43:46;;;;;;;30.75;22.70;;;;;;;8.92;73.39;100771.17;3558618;77;21164;-77
2022/04/26 21:48:37;;;;;;;30.12;21.12;;;;;;;8.88;73.52;100774.53;3568306;77;20971;-77
2022/04/26 21:53:28;;;;;;;28.02;21.93;;;;;;;8.83;73.88;100776.13;3622878;77;20924;-77
2022/04/26 21:58:19;;;;;;;27.58;20.10;;;;;;;8.77;73.51;100780.75;3580333;77;21413;-77
2022/04/26 22:03:16;;;;;;;28.15;19.90;;;;;;;8.77;73.51;100780.75;3562163;77;20982;-78
2022/04/26 22:08:08;;;;;;;26.50;19.73;;;;;;;8.75;73.95;100783.30;3582118;78;21869;-78
2022/04/26 22:13:00;;;;;;;26.12;20.43;;;;;;;8.72;74.07;100788.39;3532219;77;21076;-78
2022/04/26 22:17:51;;;;;;;29.70;20.90;;;;;;;8.70;74.15;100794.39;3566090;77;20972;-78
2022/04/26 22:22:43;;;;;;;25.00;19.40;;;;;;;8.62;74.07;100800.69;3577038;77;21517;-78
2022/04/26 22:27:35;;;;;;;23.30;17.27;;;;;;;8.58;74.31;100797.53;3591832;77;20956;-78
2022/04/26 22:32:26;;;;;;;24.67;17.77;;;;;;;8.55;74.54;100797.47;3556514;77;21940;-78
2022/04/26 22:37:17;;;;;;;25.65;18.62;;;;;;;8.53;74.62;100805.59;3535451;77;20971;-78
2022/04/26 22:42:09;;;;;;;26.15;18.60;;;;;;;8.44;74.79;100800.17;3558980;78;21054;-78
2022/04/26 22:47:00;;;;;;;25.20;18.48;;;;;;;8.50;74.95;100810.72;3582505;77;21025;-78
2022/04/26 22:51:51;;;;;;;22.77;18.90;;;;;;;8.53;75.15;100808.19;3599313;77;22775;-78
2022/04/26 22:56:42;;;;;;;24.45;17.92;;;;;;;8.51;74.96;100807.27;3535311;77;21301;-78
2022/04/26 23:01:33;;;;;;;22.35;18.23;;;;;;;8.50;75.04;100815.91;3529993;77;20976;-78
2022/04/26 23:06:24;;;;;;;21.23;17.82;;;;;;;8.50;75.14;100815.91;3576356;77;20918;-78
2022/04/26 23:11:15;;;;;;;25.70;20.23;;;;;;;8.47;75.23;100820.99;3511208;77;21671;-78
2022/04/26 23:16:07;;;;;;;31.20;22.10;;;;;;;8.43;75.11;100821.33;3541278;77;20995;-78
2022/04/26 23:20:58;;;;;;;27.93;19.77;;;;;;;8.37;75.18;100822.01;3608297;77;21329;-78
2022/04/26 23:25:49;;;;;;;28.75;21.50;;;;;;;8.38;75.41;100827.63;3514656;78;20945;-78
2022/04/26 23:30:41;;;;;;;25.40;18.73;;;;;;;8.37;75.51;100833.67;3592509;77;21492;-78
2022/04/26 23:35:34;;;;;;;21.52;15.93;;;;;;;8.36;75.61;100825.42;3578153;77;20968;-78
2022/04/26 23:40:26;;;;;;;22.55;15.58;;;;;;;8.36;75.62;100832.33;3536966;77;20985;-78
2022/04/26 23:45:17;;;;;;;22.70;15.20;;;;;;;8.35;75.65;100830.55;3580950;77;22174;-78
2022/04/26 23:55:18;;;;;;;20.88;15.45;;;;;;;8.28;75.69;100830.83;3573360;77;21007;-78
